• Join FlightAware (Why Join?)
  • Login
  • US Flag 
03:23AM EDT


 

Airport Tracker/Info


-or-


 

Live Flight TrackerFlight Track Log ✈ LYM1647 ✈ 07-May-2013 ✈ KDEN - KGCK

Flight Track Log - Related Links

Times and Time Zones

All times are in EDT time to prevent confusion due to time zone crossing. See the LYM1647 flight status page for this flight to view local times or setup timezone preferences in your user account.

Time Position Orientation Groundspeed Altitude Reporting Facility
EDT Latitude Longitude Course Direction KTS MPH feet Rate Location/Type
08:11AM 39.8667 -104.5667 108° East 186 214 8,200  Level Denver TRACON
08:13AM 39.8297 -104.4994 126° Southeast 209 241 9,000 360 Climbing Denver Center
08:14AM 39.7922 -104.4225 122° Southeast 252 290 9,100 840 Climbing Denver Center
08:15AM 39.7425 -104.3572 135° Southeast 250 288 10,800 1,200 Climbing Denver Center
08:16AM 39.7014 -104.2908 129° Southeast 240 276 11,600 720 Climbing Denver Center
08:17AM 39.6997 -104.2153 108° East  Level FlightAware Approximate
08:17AM 39.6775 -104.1997 109° East 249 287 12,300  Level Denver Center
08:18AM 39.6606 -104.1125 104° East 251 289 13,100 780 Climbing Denver Center
08:19AM 39.6422 -104.0253 105° East 250 288 13,900 780 Climbing Denver Center
08:20AM 39.6214 -103.9386 107° East 249 287 14,700 960 Climbing Denver Center
08:21AM 39.5992 -103.8556 109° East 243 280 15,900 1,080 Climbing Denver Center
08:22AM 39.5761 -103.7806 112° Southeast 226 260 17,000 780 Climbing Denver Center
08:23AM 39.5497 -103.7136 117° Southeast 219 252 17,500 600 Climbing Denver Center
08:24AM 39.5322 -103.6303 105° East 237 273 18,300 660 Climbing Denver Center
08:25AM 39.5064 -103.5525 113° Southeast 233 268 18,900 300 Climbing Denver Center
08:26AM 39.4900 -103.4678 104° East 247 284 19,000 60 Climbing Denver Center
08:27AM 39.4636 -103.3797 111° Southeast 260 299 19,100  Climbing Denver Center
08:28AM 39.4358 -103.2878 111° Southeast 269 310 19,100  Level Denver Center
08:29AM 39.4064 -103.1958 112° Southeast 275 316 19,100  Level Denver Center
08:30AM 39.3811 -103.1008 109° East 281 323 19,100  Level Denver Center
08:31AM 39.3661 -103.0014 101° East 278 320 19,100 -60 Level Denver Center
08:32AM 39.3344 -102.9072 113° Southeast 284 327 19,000  Descending Denver Center
08:33AM 39.3072 -102.8111 110° East 282 325 19,100  Climbing Denver Center
08:34AM 39.2817 -102.7078 108° East 286 329 19,000 -60 Descending Denver Center
08:35AM 39.2567 -102.5975 106° East 287 330 19,000  Level Denver Center
08:36AM 39.2347 -102.5036 107° East 287 330 19,000  Level Denver Center
08:37AM 39.2097 -102.4114 109° East 285 328 19,000  Level Denver Center
08:38AM 39.1847 -102.2997 106° East 287 330 19,100  Climbing Denver Center
08:39AM 39.1583 -102.2047 110° East 294 338 19,100  Level Denver Center
08:40AM 39.1356 -102.1114 107° East 285 328 19,100  Level Denver Center
08:41AM 39.1075 -102.0033 108° East 286 329 19,100  Level Denver Center
08:42AM 39.0606 -101.9289 129° Southeast 297 342 19,100 -60 Level Denver Center
08:43AM 39.0036 -101.8689 141° Southeast 281 323 19,000  Descending Denver Center
08:44AM 38.9353 -101.7961 140° Southeast 285 328 19,100  Climbing Denver Center
08:45AM 38.8797 -101.7328 138° Southeast 281 323 19,000 -60 Descending Denver Center
08:46AM 38.8100 -101.6617 142° Southeast 285 328 19,000 -240 Level Denver Center
08:47AM 38.7533 -101.5978 139° Southeast 282 325 18,600 -900 Descending Denver Center
08:48AM 38.6919 -101.5289 139° Southeast 300 345 17,200 -1,260 Descending Denver Center
08:49AM 38.6139 -101.4464 140° Southeast 323 372 16,100 -1,080 Descending Denver Center
08:50AM 38.5506 -101.3739 138° Southeast 320 368 15,100 -780 Descending Denver Center
08:51AM 38.4856 -101.3058 141° Southeast 316 364 14,600 -780 Descending Denver Center
08:52AM 38.4114 -101.2272 140° Southeast 312 359 13,600 -960 Descending Denver Center
08:53AM 38.3453 -101.1619 142° Southeast 313 360 12,700 -1,080 Descending Denver Center
08:54AM 38.2806 -101.0922 140° Southeast 315 362 11,500 -1,380 Descending Denver Center
08:55AM 38.2069 -101.0092 138° Southeast 316 364 10,000 -1,740 Descending Denver Center
08:56AM 38.1456 -100.9456 141° Southeast 308 354 8,000 -1,680 Descending Denver Center
08:57AM 38.0900 -100.8831 138° Southeast 291 335 6,600 -1,260 Descending Denver Center
08:58AM 38.0639 -100.8431 130° Southeast 260 299 6,000 -1,200 Descending Kansas City Center
08:59AM 38.0164 -100.7761 132° Southeast 236 272 4,600 -1,020 Descending Kansas City Center
09:00AM 37.9825 -100.7286 132° Southeast 210 242 3,900 -720 Descending Kansas City Center